Time;durP1;ratioP1;P1;durP2;ratioP2;P2;SDS_P1;SDS_P2;PMS_P1;PMS_P2;Temp;Humidity;BMP_temperature;BMP_pressure;BME280_temperature;BME280_humidity;BME280_pressure;Samples;Min_cycle;Max_cycle;Signal;HPM_P1;HPM_P2
2023/07/08 00:00:22;;;;;;;5.90;4.37;;;19.30;94.00;;;;;;5084120;28;20400;-69
2023/07/08 00:02:49;;;;;;;7.37;5.60;;;19.20;94.50;;;;;;5087860;28;20789;-69
2023/07/08 00:05:17;;;;;;;6.57;5.67;;;19.10;95.10;;;;;;5081131;28;20513;-70
2023/07/08 00:07:43;;;;;;;6.20;5.37;;;19.10;95.40;;;;;;5080099;28;20765;-69
2023/07/08 00:10:23;;;;;;;6.70;6.10;;;19.00;95.80;;;;;;5089324;28;20473;-69
2023/07/08 00:12:50;;;;;;;7.10;6.00;;;19.00;96.40;;;;;;5085057;28;20450;-69
2023/07/08 00:15:17;;;;;;;7.33;5.90;;;19.00;96.60;;;;;;5089539;28;20477;-69
2023/07/08 00:17:43;;;;;;;7.17;5.43;;;19.00;96.40;;;;;;5084970;28;20401;-69
2023/07/08 00:20:21;;;;;;;8.90;5.97;;;19.00;96.80;;;;;;5088162;28;20398;-68
2023/07/08 00:22:49;;;;;;;8.30;5.87;;;19.00;96.90;;;;;;5080771;28;20806;-69
2023/07/08 00:25:16;;;;;;;6.00;5.40;;;19.10;96.50;;;;;;5083162;28;20489;-69
2023/07/08 00:27:44;;;;;;;7.60;5.80;;;19.00;96.70;;;;;;5087454;28;20405;-68
2023/07/08 00:30:28;;;;;;;6.30;5.40;;;19.10;96.60;;;;;;5083621;28;20415;-68
2023/07/08 00:32:55;;;;;;;4.97;4.17;;;19.10;96.40;;;;;;5087240;28;20740;-68
2023/07/08 00:35:34;;;;;;;5.73;5.23;;;19.10;96.40;;;;;;5073996;28;20433;-69
2023/07/08 00:38:01;;;;;;;4.70;4.30;;;19.00;96.40;;;;;;5089581;28;20822;-70
2023/07/08 00:40:32;;;;;;;6.03;4.57;;;19.00;96.40;;;;;;5091832;28;20423;-70
2023/07/08 00:43:01;;;;;;;4.80;4.30;;;19.10;96.20;;;;;;5094616;28;20404;-68
2023/07/08 00:45:36;;;;;;;5.70;4.03;;;19.00;96.20;;;;;;5079394;28;20406;-70
2023/07/08 00:48:23;;;;;;;5.93;3.87;;;19.00;96.30;;;;;;5088015;28;20411;-67
2023/07/08 00:50:50;;;;;;;5.33;4.27;;;19.00;96.30;;;;;;5079413;28;20441;-68
2023/07/08 00:53:28;;;;;;;4.40;4.00;;;19.00;96.50;;;;;;5090185;28;20446;-69
2023/07/08 00:56:15;;;;;;;5.97;4.63;;;19.00;96.60;;;;;;5083209;28;20440;-68
2023/07/08 00:59:02;;;;;;;8.73;6.00;;;19.00;96.60;;;;;;5089536;28;20490;-69
2023/07/08 01:01:30;;;;;;;5.90;4.80;;;18.90;96.80;;;;;;5063255;28;20988;-69
2023/07/08 01:04:02;;;;;;;15.23;5.03;;;19.00;96.80;;;;;;5079430;28;20433;-68
2023/07/08 01:06:33;;;;;;;5.00;4.47;;;18.90;96.90;;;;;;5080214;28;20461;-70
2023/07/08 01:09:05;;;;;;;4.03;3.73;;;18.90;96.80;;;;;;5088163;28;20401;-68
2023/07/08 01:11:32;;;;;;;4.43;4.03;;;18.90;96.80;;;;;;5083621;28;20909;-69
2023/07/08 01:14:00;;;;;;;5.30;4.43;;;18.80;97.00;;;;;;5087534;28;20988;-69
2023/07/08 01:16:26;;;;;;;5.07;4.10;;;18.80;96.90;;;;;;5075356;28;20497;-69
2023/07/08 01:18:54;;;;;;;5.20;4.70;;;18.70;97.10;;;;;;5083496;28;20416;-69
2023/07/08 01:21:31;;;;;;;7.80;4.17;;;18.70;97.50;;;;;;5084657;28;20422;-70
2023/07/08 01:23:58;;;;;;;5.67;4.40;;;18.70;97.70;;;;;;5087693;28;20459;-68
2023/07/08 01:26:26;;;;;;;4.57;4.17;;;18.60;98.10;;;;;;5090107;28;20408;-69
2023/07/08 01:28:56;;;;;;;7.93;4.80;;;18.50;97.90;;;;;;5087565;28;20717;-69
2023/07/08 01:31:23;;;;;;;4.80;4.33;;;18.50;97.90;;;;;;5092939;28;20500;-69
2023/07/08 01:33:50;;;;;;;4.23;3.83;;;18.50;98.00;;;;;;5089736;28;20442;-70
2023/07/08 01:36:16;;;;;;;5.43;4.70;;;18.50;98.10;;;;;;5092103;28;20784;-70
2023/07/08 01:38:43;;;;;;;3.67;3.37;;;18.50;98.10;;;;;;5083094;28;20403;-69
2023/07/08 01:41:13;;;;;;;4.73;4.30;;;18.40;98.10;;;;;;5091787;28;20252;-70
2023/07/08 01:43:39;;;;;;;4.43;4.03;;;18.40;98.40;;;;;;5087794;28;20427;-69
2023/07/08 01:46:14;;;;;;;6.03;3.80;;;18.50;98.10;;;;;;5089446;28;20836;-69
2023/07/08 01:48:41;;;;;;;3.73;3.43;;;18.50;98.10;;;;;;5088379;28;20174;-69
2023/07/08 01:51:07;;;;;;;3.70;3.40;;;18.50;97.80;;;;;;5079559;28;20470;-69
2023/07/08 01:53:36;;;;;;;6.07;4.20;;;18.50;97.80;;;;;;5089509;28;20456;-69
2023/07/08 01:56:02;;;;;;;6.07;3.87;;;18.50;97.90;;;;;;5090733;28;20447;-70
2023/07/08 01:58:28;;;;;;;5.00;3.73;;;18.50;97.80;;;;;;5087433;28;20411;-69
2023/07/08 02:00:54;;;;;;;4.10;3.43;;;18.50;97.80;;;;;;5082400;28;20412;-69
2023/07/08 02:03:21;;;;;;;4.33;3.73;;;18.50;97.70;;;;;;5080861;28;20205;-71
2023/07/08 02:05:46;;;;;;;4.47;4.07;;;18.50;97.80;;;;;;5080122;28;20928;-69
2023/07/08 02:08:12;;;;;;;4.97;4.47;;;18.60;97.70;;;;;;5083768;28;20498;-69
2023/07/08 02:10:39;;;;;;;6.20;3.20;;;18.60;97.80;;;;;;5085600;28;20633;-70
2023/07/08 02:13:05;;;;;;;5.03;4.53;;;18.50;97.90;;;;;;5093110;28;20178;-70
2023/07/08 02:15:32;;;;;;;5.87;3.47;;;18.60;97.90;;;;;;5090665;28;20943;-70
2023/07/08 02:17:57;;;;;;;3.30;3.00;;;18.50;97.80;;;;;;5092282;28;20411;-70
2023/07/08 02:20:23;;;;;;;5.93;3.70;;;18.50;98.30;;;;;;5086003;28;20402;-70
2023/07/08 02:22:49;;;;;;;3.93;3.60;;;18.40;98.10;;;;;;5085365;28;20911;-67
2023/07/08 02:25:15;;;;;;;4.37;3.97;;;18.30;98.10;;;;;;5092909;28;20190;-69
2023/07/08 02:27:41;;;;;;;7.33;4.40;;;18.20;98.40;;;;;;5089755;28;20678;-68
2023/07/08 02:30:08;;;;;;;3.87;2.97;;;18.20;98.60;;;;;;5092250;28;20514;-69
2023/07/08 02:32:35;;;;;;;3.90;3.60;;;18.10;99.00;;;;;;5089120;28;20971;-69
2023/07/08 02:35:05;;;;;;;5.63;4.10;;;18.00;99.50;;;;;;5089034;28;20974;-69
2023/07/08 02:37:32;;;;;;;3.70;3.40;;;17.90;99.90;;;;;;5093246;28;20884;-69
2023/07/08 02:39:57;;;;;;;4.67;3.97;;;17.90;99.90;;;;;;5093850;28;20736;-68
2023/07/08 02:42:23;;;;;;;4.97;4.50;;;17.90;99.90;;;;;;5079412;28;20471;-69
2023/07/08 02:44:48;;;;;;;5.00;4.10;;;17.90;99.90;;;;;;5099275;28;20201;-68
2023/07/08 02:47:14;;;;;;;3.93;3.63;;;17.90;99.90;;;;;;5087161;28;20174;-69
2023/07/08 02:49:40;;;;;;;4.90;3.80;;;17.90;99.90;;;;;;5090999;28;20273;-69
2023/07/08 02:52:06;;;;;;;4.83;3.83;;;18.10;99.90;;;;;;5087808;28;20196;-68
2023/07/08 02:54:31;;;;;;;4.30;4.00;;;18.00;99.90;;;;;;5084544;28;20277;-69
2023/07/08 02:56:57;;;;;;;4.90;3.70;;;17.90;99.90;;;;;;5083182;28;20412;-69
2023/07/08 02:59:23;;;;;;;4.77;4.00;;;17.90;99.90;;;;;;5088119;28;20170;-68
2023/07/08 03:01:50;;;;;;;3.93;3.63;;;17.90;99.90;;;;;;5080701;28;20286;-68
2023/07/08 03:04:15;;;;;;;4.40;3.50;;;17.80;99.90;;;;;;5084227;28;20190;-68
2023/07/08 03:06:42;;;;;;;4.73;4.30;;;17.80;99.90;;;;;;5084445;28;20832;-69
2023/07/08 03:09:09;;;;;;;4.70;3.60;;;17.70;99.90;;;;;;5082231;28;20172;-69
2023/07/08 03:11:35;;;;;;;7.07;4.77;;;17.70;99.90;;;;;;5089361;28;20552;-70
2023/07/08 03:14:01;;;;;;;4.33;3.67;;;17.60;99.90;;;;;;5086764;28;20975;-68
2023/07/08 03:16:27;;;;;;;5.00;4.60;;;17.60;99.90;;;;;;5084570;28;20493;-69
2023/07/08 03:18:53;;;;;;;4.20;3.80;;;17.70;99.90;;;;;;5088252;28;20400;-69
2023/07/08 03:21:18;;;;;;;5.93;4.70;;;17.60;99.90;;;;;;5081599;28;20234;-68
2023/07/08 03:23:44;;;;;;;4.50;4.20;;;17.80;99.90;;;;;;5092717;28;20854;-69
2023/07/08 03:26:16;;;;;;;4.60;4.20;;;17.80;99.90;;;;;;5094187;28;20753;-69
2023/07/08 03:28:41;;;;;;;5.53;3.87;;;17.80;99.90;;;;;;5083056;28;20411;-69
2023/07/08 03:31:09;;;;;;;3.73;3.43;;;17.90;99.90;;;;;;5096996;28;20814;-69
2023/07/08 03:33:35;;;;;;;4.93;4.40;;;17.80;99.90;;;;;;5082694;28;20277;-68
2023/07/08 03:36:03;;;;;;;4.30;3.90;;;17.70;99.90;;;;;;5089161;28;20924;-69
2023/07/08 03:38:28;;;;;;;5.60;4.57;;;17.80;99.90;;;;;;5087083;28;20495;-69
2023/07/08 03:40:54;;;;;;;5.60;4.73;;;17.70;99.90;;;;;;5082073;28;20510;-69
2023/07/08 03:43:19;;;;;;;5.23;3.90;;;17.70;99.90;;;;;;5092604;28;20238;-68
2023/07/08 03:45:45;;;;;;;5.60;3.97;;;17.80;99.90;;;;;;5094313;28;20167;-70
2023/07/08 03:48:11;;;;;;;4.70;4.20;;;17.80;99.90;;;;;;5090079;28;20184;-69
2023/07/08 03:50:38;;;;;;;5.87;4.53;;;17.80;99.90;;;;;;5086804;28;20411;-69
2023/07/08 03:53:04;;;;;;;4.93;4.53;;;17.80;99.90;;;;;;5080551;28;20464;-71
2023/07/08 03:55:30;;;;;;;5.30;4.17;;;17.80;99.90;;;;;;5080017;28;20425;-67
2023/07/08 03:57:56;;;;;;;6.40;5.07;;;17.80;99.90;;;;;;5079991;28;20492;-68
2023/07/08 04:00:21;;;;;;;5.73;3.77;;;17.80;99.90;;;;;;5080817;28;20756;-69
2023/07/08 04:02:47;;;;;;;5.17;4.70;;;17.90;99.90;;;;;;5083519;28;20175;-68
2023/07/08 04:05:15;;;;;;;4.90;4.00;;;17.90;99.90;;;;;;5089341;28;20751;-69
2023/07/08 04:07:41;;;;;;;6.30;4.57;;;17.90;99.90;;;;;;5088890;28;20448;-70
2023/07/08 04:10:07;;;;;;;4.50;4.10;;;18.00;99.90;;;;;;5087556;28;20407;-70
2023/07/08 04:12:33;;;;;;;4.40;4.00;;;18.00;99.90;;;;;;5080909;28;20181;-70
2023/07/08 04:14:58;;;;;;;5.47;3.27;;;18.10;99.90;;;;;;5079670;28;20477;-69
2023/07/08 04:17:24;;;;;;;4.13;3.73;;;18.10;99.90;;;;;;5088172;28;20167;-69
2023/07/08 04:19:50;;;;;;;4.67;4.27;;;18.20;99.90;;;;;;5083760;28;20657;-69
2023/07/08 04:22:16;;;;;;;5.33;4.17;;;18.30;99.90;;;;;;5089337;28;20252;-69
2023/07/08 04:24:42;;;;;;;5.60;4.40;;;18.80;99.90;;;;;;5079837;28;20431;-69
2023/07/08 04:27:14;;;;;;;9.70;3.70;;;19.90;99.90;;;;;;5093488;28;20920;-70
2023/07/08 04:29:41;;;;;;;4.50;4.10;;;20.50;99.90;;;;;;5084953;28;20180;-70
2023/07/08 04:32:07;;;;;;;4.97;4.03;;;21.80;99.90;;;;;;5078927;28;20585;-69
2023/07/08 04:34:32;;;;;;;4.30;3.60;;;22.20;99.00;;;;;;5082836;28;20435;-69
2023/07/08 04:36:58;;;;;;;4.57;2.87;;;23.00;97.20;;;;;;5086621;28;20801;-70
2023/07/08 04:39:24;;;;;;;6.63;3.80;;;22.70;97.40;;;;;;5095233;28;20314;-70
2023/07/08 04:41:49;;;;;;;3.80;3.40;;;23.00;96.70;;;;;;5079031;28;20184;-70
2023/07/08 04:44:18;;;;;;;4.00;3.47;;;23.50;96.20;;;;;;5087432;28;20204;-69
2023/07/08 04:46:50;;;;;;;4.80;3.70;;;23.50;95.80;;;;;;5083112;28;20178;-68
2023/07/08 04:49:17;;;;;;;4.40;3.70;;;23.80;95.00;;;;;;5081000;28;20418;-68
2023/07/08 04:51:43;;;;;;;3.90;3.47;;;23.20;95.30;;;;;;5087745;28;20463;-69
2023/07/08 04:54:09;;;;;;;7.20;3.50;;;23.00;95.30;;;;;;5082787;28;20536;-68
2023/07/08 04:56:37;;;;;;;4.70;4.23;;;22.80;95.20;;;;;;5085310;28;20945;-69
2023/07/08 04:59:05;;;;;;;4.07;3.67;;;22.70;95.60;;;;;;5096831;28;20418;-69
2023/07/08 05:01:30;;;;;;;5.43;4.10;;;22.40;95.70;;;;;;5088828;28;20756;-69
2023/07/08 05:03:56;;;;;;;2.97;2.67;;;22.20;96.00;;;;;;5087545;28;20484;-69
2023/07/08 05:06:22;;;;;;;3.50;3.20;;;22.40;95.90;;;;;;5092757;28;20192;-68
2023/07/08 05:08:47;;;;;;;3.67;3.37;;;22.70;96.00;;;;;;5085927;28;20229;-70
2023/07/08 05:11:13;;;;;;;3.80;3.50;;;23.40;94.90;;;;;;5090404;28;20598;-70
2023/07/08 05:13:38;;;;;;;4.30;3.13;;;23.50;94.00;;;;;;5094724;28;20288;-70
2023/07/08 05:16:04;;;;;;;3.43;2.80;;;23.30;94.80;;;;;;5090945;28;20252;-68
2023/07/08 05:18:30;;;;;;;5.00;3.10;;;24.20;93.30;;;;;;5089576;28;20644;-69
2023/07/08 05:20:56;;;;;;;3.67;3.37;;;24.80;92.30;;;;;;5086539;28;20505;-69
2023/07/08 05:23:22;;;;;;;3.43;3.13;;;25.20;91.50;;;;;;5093471;28;20685;-69
2023/07/08 05:25:48;;;;;;;3.10;2.90;;;25.60;91.50;;;;;;5087259;28;20403;-69
2023/07/08 05:28:13;;;;;;;3.60;2.60;;;25.80;91.10;;;;;;5098703;28;20438;-69
2023/07/08 05:30:42;;;;;;;3.80;3.50;;;25.90;90.30;;;;;;5070635;28;20493;-69
2023/07/08 05:33:08;;;;;;;3.40;3.10;;;25.70;90.50;;;;;;5094664;28;20169;-69
2023/07/08 05:35:34;;;;;;;3.80;3.40;;;25.90;90.50;;;;;;5100121;28;20407;-69
2023/07/08 05:37:59;;;;;;;3.10;2.90;;;26.00;90.10;;;;;;5072515;28;20495;-69
2023/07/08 05:40:25;;;;;;;4.20;3.33;;;25.50;90.60;;;;;;5098237;28;20173;-68
2023/07/08 05:42:51;;;;;;;3.40;2.77;;;25.10;91.40;;;;;;5089060;28;20178;-69
2023/07/08 05:45:16;;;;;;;3.30;3.00;;;25.50;91.80;;;;;;5093180;28;20185;-69
2023/07/08 05:47:42;;;;;;;2.97;2.73;;;25.80;90.60;;;;;;5092267;28;20268;-68
2023/07/08 05:50:08;;;;;;;4.93;2.90;;;26.40;90.10;;;;;;5087891;28;20166;-70
2023/07/08 05:52:34;;;;;;;3.17;2.97;;;26.40;89.70;;;;;;5087932;28;20197;-70
2023/07/08 05:54:59;;;;;;;3.37;3.07;;;27.00;87.70;;;;;;5075027;28;20497;-70
2023/07/08 05:57:25;;;;;;;4.73;3.13;;;27.00;87.80;;;;;;5081648;28;20188;-69
2023/07/08 05:59:51;;;;;;;6.43;3.40;;;27.50;87.90;;;;;;5093553;28;20176;-70
2023/07/08 06:02:19;;;;;;;3.00;2.80;;;28.10;86.00;;;;;;5085688;28;20640;-70
2023/07/08 06:04:45;;;;;;;3.00;2.80;;;26.60;88.50;;;;;;5085661;28;20196;-69
2023/07/08 06:07:10;;;;;;;2.90;2.70;;;27.00;89.50;;;;;;5086406;28;20407;-69
2023/07/08 06:09:36;;;;;;;5.67;3.70;;;26.70;90.00;;;;;;5085998;28;20169;-69
2023/07/08 06:12:02;;;;;;;3.63;3.20;;;26.80;89.70;;;;;;5100294;28;20197;-70
2023/07/08 06:14:28;;;;;;;2.90;2.70;;;26.50;90.30;;;;;;5085964;28;20182;-71
2023/07/08 06:16:54;;;;;;;3.30;3.10;;;26.30;90.40;;;;;;5081144;28;20655;-69
2023/07/08 06:19:21;;;;;;;3.13;2.83;;;26.70;89.40;;;;;;5089969;28;20411;-70
2023/07/08 06:21:46;;;;;;;3.20;3.00;;;27.70;90.00;;;;;;5091943;28;20494;-69
2023/07/08 06:24:12;;;;;;;3.40;2.50;;;28.80;83.30;;;;;;5084702;28;20502;-68
2023/07/08 06:26:38;;;;;;;3.20;2.90;;;29.10;83.90;;;;;;5090656;28;20181;-69
2023/07/08 06:29:04;;;;;;;4.93;3.10;;;28.40;84.50;;;;;;5088154;28;20170;-69
2023/07/08 06:31:30;;;;;;;4.93;3.00;;;28.50;85.10;;;;;;5089311;28;20221;-70
2023/07/08 06:33:55;;;;;;;3.47;3.17;;;29.10;83.00;;;;;;5085387;28;20428;-70
2023/07/08 06:36:22;;;;;;;3.30;3.00;;;29.40;82.30;;;;;;5092626;28;20453;-70
2023/07/08 06:38:48;;;;;;;3.80;3.50;;;30.10;77.50;;;;;;5091551;28;20244;-70
2023/07/08 06:41:14;;;;;;;3.03;2.60;;;31.10;75.40;;;;;;5087547;28;20837;-70
2023/07/08 06:43:39;;;;;;;2.70;2.50;;;30.90;76.80;;;;;;5086989;28;20280;-70
2023/07/08 06:46:06;;;;;;;3.07;2.50;;;30.50;78.10;;;;;;5080123;28;20180;-69
2023/07/08 06:48:32;;;;;;;2.30;2.20;;;30.10;77.70;;;;;;5080803;28;20166;-70
2023/07/08 06:50:58;;;;;;;2.90;2.60;;;30.40;79.90;;;;;;5092173;28;20772;-70
2023/07/08 06:53:24;;;;;;;3.57;3.27;;;29.90;78.80;;;;;;5089078;28;20714;-69
2023/07/08 06:55:49;;;;;;;3.20;2.63;;;30.40;77.90;;;;;;5092701;28;20407;-69
2023/07/08 06:58:15;;;;;;;5.80;2.90;;;31.70;75.60;;;;;;5087975;28;20170;-69
2023/07/08 07:00:45;;;;;;;4.50;3.00;;;31.00;75.90;;;;;;5097931;28;20158;-70
2023/07/08 07:03:11;;;;;;;3.50;2.20;;;30.30;76.80;;;;;;5090432;28;20205;-70
2023/07/08 07:05:37;;;;;;;2.83;2.63;;;30.90;76.00;;;;;;5092183;28;20582;-70
2023/07/08 07:08:04;;;;;;;5.27;2.17;;;31.00;73.20;;;;;;5078748;28;20919;-70
2023/07/08 07:10:29;;;;;;;3.17;2.93;;;31.70;75.10;;;;;;5091981;28;20494;-70
2023/07/08 07:12:55;;;;;;;3.00;2.70;;;32.70;71.70;;;;;;5087874;28;20546;-70
2023/07/08 07:15:21;;;;;;;3.37;3.07;;;33.10;71.20;;;;;;5080092;28;20193;-69
2023/07/08 07:17:46;;;;;;;2.70;2.50;;;32.50;71.60;;;;;;5078696;28;20231;-69
2023/07/08 07:20:12;;;;;;;3.17;2.87;;;31.70;72.10;;;;;;5085585;28;20234;-70
2023/07/08 07:22:38;;;;;;;2.63;2.43;;;31.10;71.60;;;;;;5078921;28;20550;-70
2023/07/08 07:25:04;;;;;;;4.70;2.73;;;31.10;73.40;;;;;;5088788;28;20201;-69
2023/07/08 07:27:30;;;;;;;4.00;3.20;;;31.60;73.30;;;;;;5088370;28;20198;-71
2023/07/08 07:29:59;;;;;;;3.40;3.10;;;32.10;75.10;;;;;;5087750;28;20408;-69
2023/07/08 07:32:26;;;;;;;4.63;4.07;;;31.70;75.50;;;;;;5085877;28;20452;-70
2023/07/08 07:34:52;;;;;;;3.53;2.60;;;33.10;73.80;;;;;;5078580;28;20432;-69
2023/07/08 07:37:20;;;;;;;5.23;3.07;;;32.50;73.30;;;;;;5086453;28;20407;-70
2023/07/08 07:39:45;;;;;;;3.53;3.23;;;31.30;74.80;;;;;;5080339;28;20216;-70
2023/07/08 07:42:13;;;;;;;4.93;3.43;;;30.80;77.80;;;;;;5084959;28;20419;-70
2023/07/08 07:44:39;;;;;;;2.67;2.47;;;31.20;78.20;;;;;;5086839;28;20197;-71
2023/07/08 07:47:05;;;;;;;3.03;2.83;;;31.70;76.80;;;;;;5095996;28;20899;-71
2023/07/08 07:49:31;;;;;;;3.20;3.00;;;31.30;77.90;;;;;;5088978;28;20411;-70
2023/07/08 07:51:57;;;;;;;3.03;2.83;;;31.30;79.10;;;;;;5088140;28;20446;-71
2023/07/08 07:54:23;;;;;;;4.27;3.70;;;32.80;76.80;;;;;;5100057;28;20254;-70
2023/07/08 07:56:48;;;;;;;3.10;2.60;;;34.10;74.40;;;;;;5092837;28;20181;-70
2023/07/08 07:59:14;;;;;;;3.07;2.80;;;32.50;75.10;;;;;;5092515;28;20165;-72
2023/07/08 08:01:41;;;;;;;4.10;2.70;;;32.20;75.70;;;;;;5088418;28;20185;-69
2023/07/08 08:04:08;;;;;;;5.63;3.67;;;31.80;78.30;;;;;;5098151;28;20196;-69
2023/07/08 08:06:34;;;;;;;3.50;3.20;;;33.20;75.40;;;;;;5079704;28;20444;-69
2023/07/08 08:08:59;;;;;;;3.70;2.67;;;32.40;77.10;;;;;;5082413;28;20987;-69
2023/07/08 08:11:25;;;;;;;3.40;3.10;;;31.50;77.30;;;;;;5079953;28;20587;-69
2023/07/08 08:13:52;;;;;;;4.00;3.53;;;31.80;77.90;;;;;;5081947;28;20235;-70
2023/07/08 08:16:17;;;;;;;5.43;2.97;;;32.10;76.70;;;;;;5086896;28;20404;-69
2023/07/08 08:18:43;;;;;;;3.30;3.00;;;31.70;77.50;;;;;;5081850;28;20416;-70
2023/07/08 08:21:09;;;;;;;3.90;3.00;;;33.20;76.30;;;;;;5083482;28;20181;-71
2023/07/08 08:23:34;;;;;;;4.20;3.00;;;33.80;72.40;;;;;;5087292;28;20304;-70
2023/07/08 08:26:00;;;;;;;4.00;2.80;;;32.90;75.00;;;;;;5087615;28;20173;-70
2023/07/08 08:28:25;;;;;;;3.43;3.07;;;32.30;74.80;;;;;;5079413;28;20701;-70
2023/07/08 08:30:51;;;;;;;3.37;3.07;;;32.10;76.20;;;;;;5081677;28;20170;-70
2023/07/08 08:33:18;;;;;;;3.30;2.60;;;32.60;75.40;;;;;;5086728;28;20735;-71
2023/07/08 08:35:44;;;;;;;3.67;2.60;;;31.90;74.50;;;;;;5082848;28;20193;-69
2023/07/08 08:38:10;;;;;;;3.07;2.87;;;31.80;74.90;;;;;;5081869;28;20439;-70
2023/07/08 08:40:36;;;;;;;3.87;2.50;;;33.20;71.30;;;;;;5076291;28;20177;-69
2023/07/08 08:43:11;;;;;;;3.10;2.90;;;33.40;69.70;;;;;;5096995;28;20547;-70
2023/07/08 08:45:46;;;;;;;3.40;2.50;;;34.70;68.40;;;;;;5085094;28;20427;-71
2023/07/08 08:48:15;;;;;;;2.67;2.47;;;34.40;65.00;;;;;;5090375;28;20896;-71
2023/07/08 08:50:47;;;;;;;4.67;2.27;;;34.50;64.40;;;;;;5085606;28;20434;-70
2023/07/08 08:53:16;;;;;;;2.90;2.53;;;32.80;67.00;;;;;;5081400;28;20431;-71
2023/07/08 08:55:42;;;;;;;3.00;2.50;;;32.30;66.70;;;;;;5077322;28;20396;-70
2023/07/08 08:58:13;;;;;;;2.60;2.40;;;31.70;65.50;;;;;;5085465;28;20457;-70
2023/07/08 09:00:45;;;;;;;3.40;2.40;;;32.10;66.40;;;;;;5089414;28;20905;-68
2023/07/08 09:03:17;;;;;;;2.30;2.10;;;33.20;63.40;;;;;;5076458;28;20439;-70
2023/07/08 09:05:45;;;;;;;2.43;2.23;;;34.10;62.10;;;;;;5094201;28;20786;-70
2023/07/08 09:08:38;;;;;;;2.50;2.30;;;33.60;60.10;;;;;;5089983;28;20403;-71
2023/07/08 09:11:33;;;;;;;3.20;2.67;;;33.30;61.00;;;;;;5087114;28;20406;-70
2023/07/08 09:13:59;;;;;;;2.33;2.20;;;34.30;61.80;;;;;;5090133;28;20527;-71
2023/07/08 09:16:46;;;;;;;4.43;2.70;;;33.30;61.10;;;;;;5094784;28;20849;-70
2023/07/08 09:19:35;;;;;;;2.00;1.90;;;34.00;59.10;;;;;;5085339;28;20161;-70
2023/07/08 09:22:24;;;;;;;1.47;1.30;;;33.50;55.70;;;;;;5080341;28;20412;-70
2023/07/08 09:25:15;;;;;;;4.53;4.23;;;34.50;50.60;;;;;;5087777;28;20771;-70
2023/07/08 09:27:41;;;;;;;3.10;2.63;;;34.00;55.80;;;;;;5084183;28;20411;-71
2023/07/08 09:30:17;;;;;;;4.27;2.47;;;33.70;54.90;;;;;;5094452;28;20403;-71
2023/07/08 09:32:43;;;;;;;2.10;1.90;;;35.10;52.60;;;;;;5083187;28;20945;-71
2023/07/08 09:35:16;;;;;;;2.00;1.90;;;34.60;51.00;;;;;;5090769;28;20480;-70
2023/07/08 09:37:46;;;;;;;4.03;3.53;;;32.80;51.40;;;;;;5088614;28;20253;-70
2023/07/08 09:40:32;;;;;;;2.37;2.17;;;33.50;55.40;;;;;;5082793;28;20898;-69
2023/07/08 09:43:13;;;;;;;2.57;2.20;;;32.70;53.40;;;;;;5080489;28;20419;-69
2023/07/08 09:45:47;;;;;;;2.60;2.40;;;32.70;55.60;;;;;;5084749;28;20490;-71
2023/07/08 09:48:34;;;;;;;2.00;1.80;;;33.70;54.90;;;;;;5070751;28;20453;-69
2023/07/08 09:51:00;;;;;;;4.30;3.13;;;34.20;52.90;;;;;;5090855;28;20785;-71
2023/07/08 09:53:27;;;;;;;2.90;2.27;;;33.50;54.80;;;;;;5086014;28;20450;-70
2023/07/08 09:55:53;;;;;;;3.60;2.20;;;33.20;53.30;;;;;;5092289;28;20512;-64
2023/07/08 09:58:32;;;;;;;2.43;2.17;;;33.70;53.40;;;;;;5096935;28;20408;-70
2023/07/08 10:01:05;;;;;;;2.60;2.40;;;33.80;54.20;;;;;;5099792;28;20912;-70
2023/07/08 10:03:34;;;;;;;2.50;2.30;;;33.30;54.20;;;;;;5095629;28;20792;-70
2023/07/08 10:06:05;;;;;;;2.73;2.20;;;33.70;54.10;;;;;;5089804;28;20413;-70
2023/07/08 10:08:41;;;;;;;3.00;2.30;;;34.00;52.50;;;;;;5090846;28;20513;-68
2023/07/08 10:11:27;;;;;;;2.73;2.53;;;34.00;50.70;;;;;;5101668;28;20429;-69
2023/07/08 10:13:57;;;;;;;2.90;2.70;;;33.30;51.80;;;;;;5068743;28;20475;-69
2023/07/08 10:16:35;;;;;;;2.93;2.73;;;32.70;53.20;;;;;;5089294;28;20476;-70
2023/07/08 10:19:01;;;;;;;2.83;2.63;;;32.70;52.30;;;;;;5091070;28;20536;-70
2023/07/08 10:21:45;;;;;;;2.90;2.60;;;32.30;51.80;;;;;;5083031;28;20403;-70
2023/07/08 10:24:38;;;;;;;3.07;2.63;;;32.00;52.30;;;;;;5087463;28;20428;-71
2023/07/08 10:27:31;;;;;;;2.50;2.30;;;30.90;54.50;;;;;;5096789;28;20893;-69
2023/07/08 10:30:06;;;;;;;4.97;2.83;;;30.80;53.40;;;;;;5091581;28;20440;-70
2023/07/08 10:32:57;;;;;;;2.40;2.20;;;31.30;54.50;;;;;;5091123;28;20788;-69
2023/07/08 10:35:29;;;;;;;2.60;2.40;;;31.00;54.40;;;;;;5097009;28;20399;-70
2023/07/08 10:38:25;;;;;;;67.30;58.57;;;31.10;53.80;;;;;;5090760;28;20964;-70
2023/07/08 10:41:15;;;;;;;75.47;67.37;;;31.10;56.10;;;;;;5080011;28;20891;-70
2023/07/08 10:44:04;;;;;;;14.90;13.30;;;31.20;55.10;;;;;;5094415;28;20427;-71
2023/07/08 10:46:37;;;;;;;2.40;2.20;;;31.50;54.40;;;;;;5088600;28;20472;-70
2023/07/08 10:49:19;;;;;;;3.10;2.90;;;31.20;53.20;;;;;;5096622;28;20835;-70
2023/07/08 10:52:05;;;;;;;2.83;2.63;;;31.00;53.20;;;;;;5084171;28;20470;-71
2023/07/08 10:55:00;;;;;;;3.33;3.07;;;30.70;55.00;;;;;;5093119;28;20525;-70
2023/07/08 10:57:52;;;;;;;3.93;2.37;;;30.20;54.30;;;;;;5089125;28;20466;-70
2023/07/08 11:00:51;;;;;;;3.13;2.83;;;30.30;53.50;;;;;;5096573;28;20717;-71
2023/07/08 11:03:36;;;;;;;2.43;2.23;;;30.10;53.90;;;;;;5092715;28;20434;-69
2023/07/08 11:06:21;;;;;;;6.87;6.20;;;30.10;54.10;;;;;;5081621;28;20425;-70
2023/07/08 11:09:00;;;;;;;2.10;1.90;;;30.40;54.50;;;;;;5081648;28;20431;-69
2023/07/08 11:11:45;;;;;;;2.87;2.40;;;30.20;54.50;;;;;;5073983;28;20451;-69
2023/07/08 11:14:37;;;;;;;4.80;3.30;;;30.00;53.70;;;;;;5082767;28;20449;-68
2023/07/08 11:17:08;;;;;;;7.17;6.43;;;29.70;53.50;;;;;;5096255;28;20395;-70
2023/07/08 11:19:49;;;;;;;3.53;3.23;;;30.00;54.30;;;;;;5080891;28;20432;-70
2023/07/08 11:22:15;;;;;;;6.97;4.60;;;29.90;54.70;;;;;;5090778;28;20418;-70
2023/07/08 11:24:50;;;;;;;3.50;2.63;;;30.20;53.20;;;;;;5086995;28;20701;-70
2023/07/08 11:27:34;;;;;;;3.03;2.60;;;30.30;53.80;;;;;;5094250;28;20413;-71
2023/07/08 11:30:15;;;;;;;2.80;2.50;;;30.20;55.10;;;;;;5086117;28;20411;-71
2023/07/08 11:32:44;;;;;;;2.53;2.33;;;30.30;53.90;;;;;;5084420;28;20446;-71
2023/07/08 11:35:34;;;;;;;4.53;2.73;;;30.60;53.90;;;;;;5082825;28;20440;-70
2023/07/08 11:38:02;;;;;;;2.93;2.73;;;30.30;53.60;;;;;;5089907;28;20399;-70
2023/07/08 11:40:28;;;;;;;2.77;2.50;;;30.10;53.30;;;;;;5078061;28;20403;-69
2023/07/08 11:43:08;;;;;;;2.83;2.63;;;30.00;53.90;;;;;;5090963;28;20411;-69
2023/07/08 11:45:39;;;;;;;3.10;2.47;;;29.90;53.60;;;;;;5080874;28;20181;-69
2023/07/08 11:48:11;;;;;;;2.33;2.13;;;29.70;54.00;;;;;;5077041;28;20528;-70
2023/07/08 11:50:40;;;;;;;2.50;2.30;;;29.90;53.60;;;;;;5090382;28;20459;-69
2023/07/08 11:53:08;;;;;;;2.67;2.47;;;30.10;54.30;;;;;;5089250;28;20562;-72
2023/07/08 11:55:47;;;;;;;3.07;2.77;;;30.30;53.90;;;;;;5099787;28;20479;-70
2023/07/08 11:58:23;;;;;;;2.90;2.70;;;29.90;53.60;;;;;;5097833;28;20410;-70
2023/07/08 12:01:12;;;;;;;37.30;32.00;;;30.00;53.40;;;;;;5081278;28;20442;-70
2023/07/08 12:03:46;;;;;;;22.13;19.50;;;30.20;53.40;;;;;;5070777;28;20835;-70
2023/07/08 12:06:27;;;;;;;68.90;59.87;;;30.50;53.40;;;;;;5096563;28;20421;-71
2023/07/08 12:08:54;;;;;;;77.93;66.43;;;30.20;54.40;;;;;;5094046;28;20405;-71
2023/07/08 12:11:31;;;;;;;2.93;2.67;;;30.20;55.50;;;;;;5094289;28;20427;-70
2023/07/08 12:14:03;;;;;;;36.40;32.17;;;30.20;54.20;;;;;;5091677;28;20430;-70
2023/07/08 12:16:31;;;;;;;4.40;4.00;;;30.50;55.70;;;;;;5080072;28;20447;-69
2023/07/08 12:19:01;;;;;;;2.97;2.77;;;30.60;53.90;;;;;;5087372;28;20455;-69
2023/07/08 12:21:27;;;;;;;3.30;3.00;;;30.70;52.50;;;;;;5089593;28;20412;-71
2023/07/08 12:23:54;;;;;;;3.73;2.70;;;30.80;53.20;;;;;;5083606;28;20435;-68
2023/07/08 12:26:21;;;;;;;8.13;7.30;;;30.70;53.40;;;;;;5088565;28;20446;-70
2023/07/08 12:28:47;;;;;;;3.07;2.77;;;30.70;54.00;;;;;;5098588;28;20442;-69
2023/07/08 12:31:23;;;;;;;2.63;2.43;;;30.70;53.00;;;;;;5089145;28;20908;-69
2023/07/08 12:33:50;;;;;;;2.93;2.73;;;30.70;52.10;;;;;;5096910;28;20193;-67
2023/07/08 12:36:22;;;;;;;3.40;3.13;;;30.60;51.70;;;;;;5064232;28;20404;-70
2023/07/08 12:38:49;;;;;;;6.50;5.90;;;30.60;52.10;;;;;;5082978;28;20404;-68
2023/07/08 12:41:17;;;;;;;3.70;3.00;;;30.40;53.20;;;;;;5086517;28;20411;-71
2023/07/08 12:43:44;;;;;;;3.70;3.23;;;30.40;53.30;;;;;;5093277;28;20489;-69
2023/07/08 12:46:10;;;;;;;2.77;2.57;;;30.60;53.30;;;;;;5087011;28;20503;-69
2023/07/08 12:48:37;;;;;;;2.43;2.23;;;30.90;53.40;;;;;;5084066;28;20414;-68
2023/07/08 12:51:04;;;;;;;3.10;2.80;;;30.70;52.20;;;;;;5077349;28;20495;-70
2023/07/08 12:53:33;;;;;;;4.40;2.70;;;30.70;52.30;;;;;;5088896;28;21027;-70
2023/07/08 12:56:00;;;;;;;3.30;3.07;;;30.60;52.50;;;;;;5087222;28;20408;-70
2023/07/08 12:58:28;;;;;;;3.33;2.80;;;30.40;53.20;;;;;;5078714;28;20431;-70